KEGI

Duke Field Airport

Crestview, Florida, USA
METAR KEGI 221656Z 31008KT 5SM -TSRA BKN020CB BKN040 25/22 A3005 RMK AO2A VIS W-SW 2 LTG DSNT SW TS 3SW MOV NE CB 6SW MOV NE AND 16SW MOV NE SLP176 P0013 T02490222 $
Observed Flight Rules
May-22 @ 16:56 UTC (59 minutes ago) Marginal Visual Flight Rules
Wind Visibility Clouds Conditions
310° at 8 knots 5 miles
  • Broken at 2,000' AGL
  • Broken at 4,000' AGL
  • Light Thunderstorm
  • Light Rain
Temperatures Readings Precipitation
Current 25°C / 77°F
Dewpoint 22°C / 72°F
Humidity 83%
Altimeter 30.05" Hg
Pressure 1017.6 hPa
Elevation 59
Current Rain 0.13
METAR KEGI 221656Z 31008KT 5SM -TSRA BKN020CB BKN040 25/22 A3005 RMK AO2A VIS W-SW 2 LTG DSNT SW TS 3SW MOV NE CB 6SW MOV NE AND 16SW MOV NE SLP176 P0013 T02490222 $
Observed Flight Rules
May-22 @ 16:56 UTC
(59 minutes ago)
MVFR
Wind Visibility
310° at 8 knots 5 miles
Clouds
  • Broken at 2,000' AGL
  • Broken at 4,000' AGL
Conditions
  • Light Thunderstorm
  • Light Rain
Temperature Dewpoint
25°C / 77°F 22°C / 72°F
Humidity Altimeter Pressure
83% 30.05" Hg 1017.6 hPa
Current Rain
0.13